Station Historical Data
Daily Summary for April 16, 2017 Units:  Metric    English   Both
« Previous Day
Next Day »
Daily Weekly Monthly Yearly Custom
  High: Low: Average:
Temperature: 27 °C 15.2 °C 21.3 °C
Dew Point: 15.1 °C 11.6 °C 12.9 °C
Humidity: 87% 41% 61%
Wind Speed: 1.6km/h 0km/h 0.2km/h
Wind Gust: 8km/h - -
Wind- - NW
Pressure: 1025.6 hPa 1020.2 hPa -
Precipitation: 0 mm    
Historical Graphs
 
 
Tabular Data for April 16, 2017
Time Temperature Dew Point Pressure Wind Wind Speed Wind Gust Humidity Rainfall Rate (Hourly) solar Conditions
00:00 17.8 °C 12.1 °C 1024.3 hPa Calm     69% 0 mm WeatherDisplay:10.37 W/m2 CLR
00:15 17.5 °C 12.2 °C 1024.3 hPa Calm     71% 0 mm WeatherDisplay:10.37 W/m2 CLR
00:30 17.3 °C 12.2 °C 1024.3 hPa Calm     72% 0 mm WeatherDisplay:10.37 W/m2 CLR
00:45 16.9 °C 12.1 °C 1024.3 hPa Calm     73% 0 mm WeatherDisplay:10.37 W/m2 CLR
01:00 16.7 °C 12.1 °C 1024.3 hPa Calm     74% 0 mm WeatherDisplay:10.37 W/m2 CLR
01:15 16.5 °C 11.8 °C 1024.3 hPa Calm     74% 0 mm WeatherDisplay:10.37 W/m2 CLR
01:30 16.5 °C 11.7 °C 1024.3 hPa Calm     73% 0 mm WeatherDisplay:10.37 W/m2 CLR
01:45 17.3 °C 11.7 °C 1024.3 hPa Calm     70% 0 mm WeatherDisplay:10.37 W/m2 CLR
02:00 17.4 °C 11.7 °C 1024.3 hPa Calm     69% 0 mm WeatherDisplay:10.37 W/m2 CLR
02:15 17.7 °C 11.7 °C 1023.9 hPa Calm   1.6 km/h 68% 0 mm WeatherDisplay:10.37 W/m2 CLR
02:30 18 °C 11.6 °C 1023.9 hPa Calm   1.6 km/h 66% 0 mm WeatherDisplay:10.37 W/m2 CLR
02:45 17.9 °C 11.7 °C 1023.9 hPa Calm     67% 0 mm WeatherDisplay:10.37 W/m2 CLR
03:00 17.6 °C 11.9 °C 1023.9 hPa Calm     69% 0 mm WeatherDisplay:10.37 W/m2 CLR
03:15 17.4 °C 11.9 °C 1023.6 hPa Calm     70% 0 mm WeatherDisplay:10.37 W/m2 CLR
03:30 17.4 °C 12.1 °C 1023.6 hPa Calm     71% 0 mm WeatherDisplay:10.37 W/m2 CLR
03:45 17.1 °C 12 °C 1023.2 hPa Calm     72% 0 mm WeatherDisplay:10.37 W/m2 CLR
04:00 16.8 °C 11.9 °C 1023.2 hPa Calm     73% 0 mm WeatherDisplay:10.37 W/m2 CLR
04:15 16.8 °C 11.9 °C 1023.2 hPa Calm     73% 0 mm WeatherDisplay:10.37 W/m2 CLR
04:30 16.8 °C 11.9 °C 1023.2 hPa Calm     73% 0 mm WeatherDisplay:10.37 W/m2 CLR
04:45 16.8 °C 11.9 °C 1023.2 hPa Calm     73% 0 mm WeatherDisplay:10.37 W/m2 CLR
05:00 16.8 °C 11.9 °C 1023.2 hPa Calm     73% 0 mm WeatherDisplay:10.37 W/m2 CLR
05:15 16.8 °C 11.9 °C 1023.2 hPa Calm     73% 0 mm WeatherDisplay:10.37 W/m2 CLR
05:30 16.8 °C 11.9 °C 1023.2 hPa Calm     73% 0 mm WeatherDisplay:10.37 W/m2 CLR
06:00 16.8 °C 11.9 °C 1023.6 hPa Calm     73% 0 mm WeatherDisplay:10.37 W/m2 CLR
06:15 16.8 °C 11.9 °C 1023.6 hPa Calm     73% 0 mm WeatherDisplay:10.37 W/m2 CLR
06:30 16.8 °C 11.9 °C 1023.9 hPa Calm     73% 0 mm WeatherDisplay:10.37 W/m2 CLR
06:45 16.8 °C 11.9 °C 1024.3 hPa Calm     73% 0 mm WeatherDisplay:10.37 W/m2 CLR
07:00 16.8 °C 11.9 °C 1024.3 hPa Calm     73% 0 mm WeatherDisplay:10.37 W/m2 CLR
07:15 16.8 °C 11.9 °C 1024.3 hPa Calm     73% 0 mm WeatherDisplay:10.37 W/m2 CLR
07:30 16.8 °C 11.9 °C 1024.3 hPa Calm     73% 0 mm WeatherDisplay:10.37 W/m2 CLR
08:00 16.8 °C 11.9 °C 1024.9 hPa Calm     73% 0 mm WeatherDisplay:10.37 W/m2 CLR
08:15 15.2 °C 13 °C 1025.3 hPa Calm     87% 0 mm WeatherDisplay:10.37 W/m2 CLR
08:30 16.1 °C 13.8 °C 1025.3 hPa Calm     86% 0 mm WeatherDisplay:10.37 W/m2 CLR
08:45 17 °C 14.3 °C 1025.3 hPa Calm     84% 0 mm WeatherDisplay:10.37 W/m2 CLR
09:00 18.3 °C 14.8 °C 1025.3 hPa Calm   1.6 km/h 80% 0 mm WeatherDisplay:10.37 W/m2 CLR
09:15 19.3 °C 15 °C 1025.6 hPa Calm   3.2 km/h 76% 0 mm WeatherDisplay:10.37 W/m2 CLR
09:30 20.1 °C 15.1 °C 1025.6 hPa Calm   6.4 km/h 73% 0 mm WeatherDisplay:10.37 W/m2 CLR
09:45 20.6 °C 14.7 °C 1025.3 hPa Calm   8 km/h 69% 0 mm WeatherDisplay:10.37 W/m2 CLR
10:00 21.3 °C 14.7 °C 1025.3 hPa Calm   3.2 km/h 66% 0 mm WeatherDisplay:10.37 W/m2 CLR
10:15 22 °C 14.1 °C 1025.3 hPa WNW 1.6 km/h 3.2 km/h 61% 0 mm WeatherDisplay:10.37 W/m2 CLR
10:30 21.9 °C 14.3 °C 1025.3 hPa Calm   4.8 km/h 62% 0 mm WeatherDisplay:10.37 W/m2 CLR
10:45 22.3 °C 13.9 °C 1025.3 hPa Calm   3.2 km/h 59% 0 mm WeatherDisplay:10.37 W/m2 CLR
11:00 22.9 °C 14.5 °C 1025.3 hPa Calm   8 km/h 59% 0 mm WeatherDisplay:10.37 W/m2 CLR
11:15 23.4 °C 14.2 °C 1025.3 hPa Calm   1.6 km/h 56% 0 mm WeatherDisplay:10.37 W/m2 CLR
11:30 24.1 °C 14.2 °C 1025.3 hPa Calm   3.2 km/h 54% 0 mm WeatherDisplay:10.37 W/m2 CLR
11:45 24.8 °C 14.9 °C 1024.9 hPa Calm   8 km/h 54% 0 mm WeatherDisplay:10.37 W/m2 CLR
12:00 25.3 °C 14.7 °C 1024.9 hPa Calm   8 km/h 52% 0 mm WeatherDisplay:10.37 W/m2 CLR
12:15 25.3 °C 15.1 °C 1024.6 hPa Calm   4.8 km/h 53% 0 mm WeatherDisplay:10.37 W/m2 CLR
12:30 26 °C 14.7 °C 1024.6 hPa NW 1.6 km/h 4.8 km/h 50% 0 mm WeatherDisplay:10.37 W/m2 CLR
12:45 26.7 °C 14.1 °C 1024.3 hPa WNW 1.6 km/h 3.2 km/h 46% 0 mm WeatherDisplay:10.37 W/m2 CLR
13:00 26.8 °C 14.5 °C 1023.9 hPa Calm   3.2 km/h 47% 0 mm WeatherDisplay:10.37 W/m2 CLR
13:15 26.8 °C 14.2 °C 1023.6 hPa North 1.6 km/h 4.8 km/h 46% 0 mm WeatherDisplay:10.37 W/m2 CLR
13:30 27 °C 14.4 °C 1023.6 hPa Calm   3.2 km/h 46% 0 mm WeatherDisplay:10.37 W/m2 CLR
14:00 26.2 °C 13.9 °C 1022.9 hPa Calm   3.2 km/h 47% 0 mm WeatherDisplay:10.37 W/m2 CLR
14:15 26.6 °C 14.3 °C 1022.9 hPa Calm   3.2 km/h 47% 0 mm WeatherDisplay:10.37 W/m2 CLR
14:30 26.6 °C 14 °C 1022.6 hPa Calm   3.2 km/h 46% 0 mm WeatherDisplay:10.37 W/m2 CLR
14:45 26.6 °C 13.3 °C 1022.2 hPa Calm   1.6 km/h 44% 0 mm WeatherDisplay:10.37 W/m2 CLR
15:00 26.3 °C 14.4 °C 1022.2 hPa Calm   4.8 km/h 48% 0 mm WeatherDisplay:10.37 W/m2 CLR
15:15 26.2 °C 13.3 °C 1022.2 hPa Calm   4.8 km/h 45% 0 mm WeatherDisplay:10.37 W/m2 CLR
15:30 26 °C 13.4 °C 1022.2 hPa Calm   4.8 km/h 46% 0 mm WeatherDisplay:10.37 W/m2 CLR
15:45 26.8 °C 14.3 °C 1021.9 hPa Calm   1.6 km/h 46% 0 mm WeatherDisplay:10.37 W/m2 CLR
16:00 26.3 °C 13.4 °C 1021.6 hPa Calm   3.2 km/h 45% 0 mm WeatherDisplay:10.37 W/m2 CLR
16:15 26.6 °C 12.6 °C 1021.6 hPa WNW 1.6 km/h 4.8 km/h 42% 0 mm WeatherDisplay:10.37 W/m2 CLR
16:30 26.7 °C 12.4 °C 1021.2 hPa Calm   4.8 km/h 41% 0 mm WeatherDisplay:10.37 W/m2 CLR
16:45 26.8 °C 12.5 °C 1020.9 hPa Calm   4.8 km/h 41% 0 mm WeatherDisplay:10.37 W/m2 CLR
17:00 26.3 °C 12 °C 1020.9 hPa Calm   4.8 km/h 41% 0 mm WeatherDisplay:10.37 W/m2 CLR
17:15 26.8 °C 12.5 °C 1020.9 hPa Calm   3.2 km/h 41% 0 mm WeatherDisplay:10.37 W/m2 CLR
17:30 26.8 °C 12.4 °C 1020.9 hPa Calm   1.6 km/h 41% 0 mm WeatherDisplay:10.37 W/m2 CLR
17:45 26.6 °C 12.2 °C 1020.5 hPa Calm   4.8 km/h 41% 0 mm WeatherDisplay:10.37 W/m2 SCT
18:00 26.5 °C 12.6 °C 1020.5 hPa Calm   8 km/h 42% 0 mm WeatherDisplay:10.37 W/m2 SCT
18:15 26.1 °C 12.9 °C 1020.2 hPa Calm   3.2 km/h 44% 0 mm WeatherDisplay:10.37 W/m2 SCT
18:30 25.8 °C 11.9 °C 1020.2 hPa Calm   3.2 km/h 42% 0 mm WeatherDisplay:10.37 W/m2 SCT
18:45 25.4 °C 11.9 °C 1020.2 hPa Calm   1.6 km/h 43% 0 mm WeatherDisplay:10.37 W/m2 SCT
19:00 24.8 °C 12.1 °C 1020.2 hPa Calm   3.2 km/h 45% 0 mm WeatherDisplay:10.37 W/m2 SCT
19:15 24.6 °C 12.5 °C 1020.2 hPa Calm   3.2 km/h 47% 0 mm WeatherDisplay:10.37 W/m2 SCT
19:30 24.1 °C 12.4 °C 1020.2 hPa Calm     48% 0 mm WeatherDisplay:10.37 W/m2 SCT
19:45 23.6 °C 12.5 °C 1020.2 hPa Calm     50% 0 mm WeatherDisplay:10.37 W/m2 SCT
20:00 23.1 °C 12.4 °C 1020.2 hPa Calm     51% 0 mm WeatherDisplay:10.37 W/m2 SCT
20:15 22.6 °C 12.8 °C 1020.2 hPa Calm     54% 0 mm WeatherDisplay:10.37 W/m2 SCT
20:30 22.2 °C 13 °C 1020.5 hPa Calm     56% 0 mm WeatherDisplay:10.37 W/m2 SCT
20:45 21.9 °C 13 °C 1020.5 hPa Calm     57% 0 mm WeatherDisplay:10.37 W/m2 SCT
21:00 21.7 °C 13.1 °C 1020.9 hPa Calm     58% 0 mm WeatherDisplay:10.37 W/m2 SCT
21:15 21.5 °C 13.2 °C 1020.9 hPa Calm     59% 0 mm WeatherDisplay:10.37 W/m2 SCT
21:30 21.4 °C 13.1 °C 1020.9 hPa Calm     59% 0 mm WeatherDisplay:10.37 W/m2 SCT
21:45 21.2 °C 13.1 °C 1020.9 hPa Calm     60% 0 mm WeatherDisplay:10.37 W/m2 SCT
22:00 20.9 °C 13.3 °C 1021.2 hPa Calm     62% 0 mm WeatherDisplay:10.37 W/m2 SCT
22:15 20.5 °C 12.9 °C 1021.2 hPa Calm     62% 0 mm WeatherDisplay:10.37 W/m2 SCT
22:30 20.2 °C 13.4 °C 1021.2 hPa Calm     65% 0 mm WeatherDisplay:10.37 W/m2 SCT
22:45 19.6 °C 13.3 °C 1021.2 hPa Calm     67% 0 mm WeatherDisplay:10.37 W/m2 SCT
23:00 19.1 °C 13.3 °C 1021.2 hPa Calm     69% 0 mm WeatherDisplay:10.37 W/m2 SCT
23:15 18.8 °C 13.4 °C 1020.9 hPa Calm     71% 0 mm WeatherDisplay:10.37 W/m2 SCT
23:30 18.5 °C 13.3 °C 1020.9 hPa Calm     72% 0 mm WeatherDisplay:10.37 W/m2 SCT
23:45 18.3 °C 13.4 °C 1020.9 hPa Calm     73% 0 mm WeatherDisplay:10.37 W/m2 SCT
Piedmont Bend
Compliments of Weather Underground - 4 mb